sensor_id;sensor_type;location;lat;lon;timestamp;P1;durP1;ratioP1;P2;durP2;ratioP2
3257;SDS011;1641;51.306;12.384;2022-07-23T00:02:11;6.05;;;5.07;;
3257;SDS011;1641;51.306;12.384;2022-07-23T00:04:36;6.30;;;5.70;;
3257;SDS011;1641;51.306;12.384;2022-07-23T00:07:01;5.88;;;5.38;;
3257;SDS011;1641;51.306;12.384;2022-07-23T00:09:27;6.07;;;5.40;;
3257;SDS011;1641;51.306;12.384;2022-07-23T00:11:53;6.32;;;5.70;;
3257;SDS011;1641;51.306;12.384;2022-07-23T00:14:18;6.00;;;5.28;;
3257;SDS011;1641;51.306;12.384;2022-07-23T00:16:44;5.53;;;5.03;;
3257;SDS011;1641;51.306;12.384;2022-07-23T00:19:11;7.03;;;5.43;;
3257;SDS011;1641;51.306;12.384;2022-07-23T00:21:39;5.95;;;5.35;;
3257;SDS011;1641;51.306;12.384;2022-07-23T00:24:05;6.65;;;5.25;;
3257;SDS011;1641;51.306;12.384;2022-07-23T00:26:30;6.05;;;5.45;;
3257;SDS011;1641;51.306;12.384;2022-07-23T00:28:59;5.97;;;5.40;;
3257;SDS011;1641;51.306;12.384;2022-07-23T00:31:24;7.35;;;5.57;;
3257;SDS011;1641;51.306;12.384;2022-07-23T00:33:49;6.40;;;5.20;;
3257;SDS011;1641;51.306;12.384;2022-07-23T00:36:14;5.68;;;5.18;;
3257;SDS011;1641;51.306;12.384;2022-07-23T00:38:40;7.13;;;5.60;;
3257;SDS011;1641;51.306;12.384;2022-07-23T00:41:05;10.07;;;6.05;;
3257;SDS011;1641;51.306;12.384;2022-07-23T00:43:30;6.38;;;5.78;;
3257;SDS011;1641;51.306;12.384;2022-07-23T00:45:55;8.55;;;5.90;;
3257;SDS011;1641;51.306;12.384;2022-07-23T00:48:21;7.25;;;4.93;;
3257;SDS011;1641;51.306;12.384;2022-07-23T00:50:46;6.68;;;5.35;;
3257;SDS011;1641;51.306;12.384;2022-07-23T00:53:12;7.72;;;5.15;;
3257;SDS011;1641;51.306;12.384;2022-07-23T00:55:37;6.57;;;5.40;;
3257;SDS011;1641;51.306;12.384;2022-07-23T00:58:03;6.97;;;5.40;;
3257;SDS011;1641;51.306;12.384;2022-07-23T01:00:29;8.00;;;5.85;;
3257;SDS011;1641;51.306;12.384;2022-07-23T01:02:54;6.78;;;5.53;;
3257;SDS011;1641;51.306;12.384;2022-07-23T01:05:20;5.95;;;5.32;;
3257;SDS011;1641;51.306;12.384;2022-07-23T01:07:47;8.15;;;5.47;;
3257;SDS011;1641;51.306;12.384;2022-07-23T01:10:14;7.72;;;5.97;;
3257;SDS011;1641;51.306;12.384;2022-07-23T01:13:05;7.18;;;6.15;;
3257;SDS011;1641;51.306;12.384;2022-07-23T01:15:32;6.60;;;5.75;;
3257;SDS011;1641;51.306;12.384;2022-07-23T01:17:58;6.50;;;5.40;;
3257;SDS011;1641;51.306;12.384;2022-07-23T01:20:24;9.68;;;5.68;;
3257;SDS011;1641;51.306;12.384;2022-07-23T01:22:49;6.15;;;5.57;;
3257;SDS011;1641;51.306;12.384;2022-07-23T01:25:15;7.35;;;6.00;;
3257;SDS011;1641;51.306;12.384;2022-07-23T01:27:40;6.05;;;5.20;;
3257;SDS011;1641;51.306;12.384;2022-07-23T01:30:06;6.53;;;5.85;;
3257;SDS011;1641;51.306;12.384;2022-07-23T01:32:32;9.00;;;5.68;;
3257;SDS011;1641;51.306;12.384;2022-07-23T01:34:57;5.90;;;5.32;;
3257;SDS011;1641;51.306;12.384;2022-07-23T01:37:22;9.23;;;6.38;;
3257;SDS011;1641;51.306;12.384;2022-07-23T01:39:48;6.28;;;5.28;;
3257;SDS011;1641;51.306;12.384;2022-07-23T01:42:13;6.65;;;5.85;;
3257;SDS011;1641;51.306;12.384;2022-07-23T01:44:38;7.10;;;6.03;;
3257;SDS011;1641;51.306;12.384;2022-07-23T01:47:03;7.10;;;6.03;;
3257;SDS011;1641;51.306;12.384;2022-07-23T01:49:29;8.82;;;6.07;;
3257;SDS011;1641;51.306;12.384;2022-07-23T01:51:54;9.57;;;5.82;;
3257;SDS011;1641;51.306;12.384;2022-07-23T01:54:26;6.88;;;5.80;;
3257;SDS011;1641;51.306;12.384;2022-07-23T01:56:55;8.65;;;6.22;;
3257;SDS011;1641;51.306;12.384;2022-07-23T01:59:20;6.55;;;5.82;;
3257;SDS011;1641;51.306;12.384;2022-07-23T02:01:46;6.70;;;6.00;;
3257;SDS011;1641;51.306;12.384;2022-07-23T02:04:11;6.72;;;5.05;;
3257;SDS011;1641;51.306;12.384;2022-07-23T02:06:39;9.32;;;6.20;;
3257;SDS011;1641;51.306;12.384;2022-07-23T02:09:04;6.47;;;5.88;;
3257;SDS011;1641;51.306;12.384;2022-07-23T02:11:30;7.68;;;6.07;;
3257;SDS011;1641;51.306;12.384;2022-07-23T02:13:55;10.25;;;6.13;;
3257;SDS011;1641;51.306;12.384;2022-07-23T02:16:20;7.07;;;6.25;;
3257;SDS011;1641;51.306;12.384;2022-07-23T02:18:45;8.95;;;6.25;;
3257;SDS011;1641;51.306;12.384;2022-07-23T02:21:11;6.47;;;5.35;;
3257;SDS011;1641;51.306;12.384;2022-07-23T02:23:37;7.13;;;6.43;;
3257;SDS011;1641;51.306;12.384;2022-07-23T02:26:02;8.88;;;5.90;;
3257;SDS011;1641;51.306;12.384;2022-07-23T02:28:27;7.95;;;5.40;;
3257;SDS011;1641;51.306;12.384;2022-07-23T02:30:53;9.07;;;5.95;;
3257;SDS011;1641;51.306;12.384;2022-07-23T02:33:18;6.10;;;5.50;;
3257;SDS011;1641;51.306;12.384;2022-07-23T02:35:43;9.05;;;6.25;;
3257;SDS011;1641;51.306;12.384;2022-07-23T02:38:08;6.25;;;5.63;;
3257;SDS011;1641;51.306;12.384;2022-07-23T02:40:34;8.45;;;6.32;;
3257;SDS011;1641;51.306;12.384;2022-07-23T02:42:59;6.68;;;5.95;;
3257;SDS011;1641;51.306;12.384;2022-07-23T02:45:24;11.38;;;6.93;;
3257;SDS011;1641;51.306;12.384;2022-07-23T02:47:49;7.40;;;6.70;;
3257;SDS011;1641;51.306;12.384;2022-07-23T02:50:15;8.48;;;6.78;;
3257;SDS011;1641;51.306;12.384;2022-07-23T02:52:41;8.63;;;6.50;;
3257;SDS011;1641;51.306;12.384;2022-07-23T02:55:06;7.95;;;6.43;;
3257;SDS011;1641;51.306;12.384;2022-07-23T02:57:32;10.23;;;7.07;;
3257;SDS011;1641;51.306;12.384;2022-07-23T02:59:57;7.97;;;6.38;;
3257;SDS011;1641;51.306;12.384;2022-07-23T03:02:23;8.27;;;7.15;;
3257;SDS011;1641;51.306;12.384;2022-07-23T03:04:48;6.30;;;5.70;;
3257;SDS011;1641;51.306;12.384;2022-07-23T03:07:15;11.82;;;6.75;;
3257;SDS011;1641;51.306;12.384;2022-07-23T03:09:41;10.20;;;6.60;;
3257;SDS011;1641;51.306;12.384;2022-07-23T03:12:06;6.38;;;5.55;;
3257;SDS011;1641;51.306;12.384;2022-07-23T03:14:35;7.43;;;6.30;;
3257;SDS011;1641;51.306;12.384;2022-07-23T03:17:06;10.15;;;7.00;;
3257;SDS011;1641;51.306;12.384;2022-07-23T03:19:37;6.85;;;5.97;;
3257;SDS011;1641;51.306;12.384;2022-07-23T03:22:03;10.10;;;5.82;;
3257;SDS011;1641;51.306;12.384;2022-07-23T03:24:29;6.85;;;6.03;;
3257;SDS011;1641;51.306;12.384;2022-07-23T03:27:16;9.00;;;6.25;;
3257;SDS011;1641;51.306;12.384;2022-07-23T03:29:41;7.95;;;5.95;;
3257;SDS011;1641;51.306;12.384;2022-07-23T03:32:06;9.00;;;6.22;;
3257;SDS011;1641;51.306;12.384;2022-07-23T03:34:32;8.45;;;6.72;;
3257;SDS011;1641;51.306;12.384;2022-07-23T03:36:57;9.52;;;6.28;;
3257;SDS011;1641;51.306;12.384;2022-07-23T03:39:22;9.93;;;7.05;;
3257;SDS011;1641;51.306;12.384;2022-07-23T03:41:48;9.70;;;6.60;;
3257;SDS011;1641;51.306;12.384;2022-07-23T03:44:13;7.72;;;6.75;;
3257;SDS011;1641;51.306;12.384;2022-07-23T03:46:38;7.63;;;6.88;;
3257;SDS011;1641;51.306;12.384;2022-07-23T03:49:03;9.93;;;6.85;;
3257;SDS011;1641;51.306;12.384;2022-07-23T03:51:29;8.40;;;7.00;;
3257;SDS011;1641;51.306;12.384;2022-07-23T03:53:58;11.70;;;7.78;;
3257;SDS011;1641;51.306;12.384;2022-07-23T03:56:23;11.35;;;7.50;;
3257;SDS011;1641;51.306;12.384;2022-07-23T03:58:48;8.05;;;7.25;;
3257;SDS011;1641;51.306;12.384;2022-07-23T04:01:14;9.88;;;7.15;;
3257;SDS011;1641;51.306;12.384;2022-07-23T04:03:39;7.40;;;6.50;;
3257;SDS011;1641;51.306;12.384;2022-07-23T04:06:05;6.55;;;5.97;;
3257;SDS011;1641;51.306;12.384;2022-07-23T04:08:31;7.68;;;6.13;;
3257;SDS011;1641;51.306;12.384;2022-07-23T04:10:56;10.32;;;6.63;;
3257;SDS011;1641;51.306;12.384;2022-07-23T04:13:25;7.57;;;6.32;;
3257;SDS011;1641;51.306;12.384;2022-07-23T04:15:50;7.57;;;6.00;;
3257;SDS011;1641;51.306;12.384;2022-07-23T04:18:16;8.52;;;5.72;;
3257;SDS011;1641;51.306;12.384;2022-07-23T04:20:42;9.95;;;6.85;;
3257;SDS011;1641;51.306;12.384;2022-07-23T04:23:08;7.07;;;5.60;;
3257;SDS011;1641;51.306;12.384;2022-07-23T04:25:34;8.90;;;5.80;;
3257;SDS011;1641;51.306;12.384;2022-07-23T04:28:00;12.07;;;6.63;;
3257;SDS011;1641;51.306;12.384;2022-07-23T04:30:25;6.95;;;5.60;;
3257;SDS011;1641;51.306;12.384;2022-07-23T04:32:54;8.90;;;6.32;;
3257;SDS011;1641;51.306;12.384;2022-07-23T04:35:19;9.57;;;5.80;;
3257;SDS011;1641;51.306;12.384;2022-07-23T04:37:45;10.05;;;6.45;;
3257;SDS011;1641;51.306;12.384;2022-07-23T04:40:11;7.22;;;5.60;;
3257;SDS011;1641;51.306;12.384;2022-07-23T04:42:37;7.53;;;6.40;;
3257;SDS011;1641;51.306;12.384;2022-07-23T04:45:02;10.98;;;6.55;;
3257;SDS011;1641;51.306;12.384;2022-07-23T04:47:28;10.30;;;6.90;;
3257;SDS011;1641;51.306;12.384;2022-07-23T04:49:58;7.10;;;6.40;;
3257;SDS011;1641;51.306;12.384;2022-07-23T04:52:24;10.48;;;7.05;;
3257;SDS011;1641;51.306;12.384;2022-07-23T04:54:49;18.67;;;8.23;;
3257;SDS011;1641;51.306;12.384;2022-07-23T04:57:14;9.68;;;7.90;;
3257;SDS011;1641;51.306;12.384;2022-07-23T04:59:40;10.75;;;7.63;;
3257;SDS011;1641;51.306;12.384;2022-07-23T05:02:05;15.02;;;8.40;;
3257;SDS011;1641;51.306;12.384;2022-07-23T05:04:30;14.30;;;9.13;;
3257;SDS011;1641;51.306;12.384;2022-07-23T05:06:56;10.57;;;9.27;;
3257;SDS011;1641;51.306;12.384;2022-07-23T05:09:22;10.10;;;8.80;;
3257;SDS011;1641;51.306;12.384;2022-07-23T05:11:47;14.65;;;9.63;;
3257;SDS011;1641;51.306;12.384;2022-07-23T05:14:12;14.30;;;9.90;;
3257;SDS011;1641;51.306;12.384;2022-07-23T05:16:38;11.20;;;9.35;;
3257;SDS011;1641;51.306;12.384;2022-07-23T05:19:03;13.32;;;9.40;;
3257;SDS011;1641;51.306;12.384;2022-07-23T05:21:28;19.65;;;9.98;;
3257;SDS011;1641;51.306;12.384;2022-07-23T05:23:54;16.65;;;10.20;;
3257;SDS011;1641;51.306;12.384;2022-07-23T05:26:19;14.52;;;9.73;;
3257;SDS011;1641;51.306;12.384;2022-07-23T05:28:44;15.55;;;8.52;;
3257;SDS011;1641;51.306;12.384;2022-07-23T05:31:10;16.13;;;9.82;;
3257;SDS011;1641;51.306;12.384;2022-07-23T05:33:35;15.43;;;10.43;;
3257;SDS011;1641;51.306;12.384;2022-07-23T05:36:01;12.70;;;11.10;;
3257;SDS011;1641;51.306;12.384;2022-07-23T05:38:27;21.50;;;11.80;;
3257;SDS011;1641;51.306;12.384;2022-07-23T05:40:53;18.80;;;11.32;;
3257;SDS011;1641;51.306;12.384;2022-07-23T05:43:18;20.58;;;11.98;;
3257;SDS011;1641;51.306;12.384;2022-07-23T05:45:44;15.20;;;11.27;;
3257;SDS011;1641;51.306;12.384;2022-07-23T05:48:09;20.83;;;14.10;;
3257;SDS011;1641;51.306;12.384;2022-07-23T05:50:34;15.55;;;12.20;;
3257;SDS011;1641;51.306;12.384;2022-07-23T05:53:00;16.02;;;11.95;;
3257;SDS011;1641;51.306;12.384;2022-07-23T05:55:25;18.65;;;12.20;;
3257;SDS011;1641;51.306;12.384;2022-07-23T05:57:50;19.85;;;13.18;;
3257;SDS011;1641;51.306;12.384;2022-07-23T06:00:15;14.18;;;12.25;;
3257;SDS011;1641;51.306;12.384;2022-07-23T06:02:41;21.17;;;12.52;;
3257;SDS011;1641;51.306;12.384;2022-07-23T06:05:06;16.63;;;13.25;;
3257;SDS011;1641;51.306;12.384;2022-07-23T06:07:33;18.52;;;12.73;;
3257;SDS011;1641;51.306;12.384;2022-07-23T06:09:58;15.20;;;12.40;;
3257;SDS011;1641;51.306;12.384;2022-07-23T06:12:23;15.48;;;11.65;;
3257;SDS011;1641;51.306;12.384;2022-07-23T06:14:49;16.30;;;11.23;;
3257;SDS011;1641;51.306;12.384;2022-07-23T06:17:16;11.02;;;9.70;;
3257;SDS011;1641;51.306;12.384;2022-07-23T06:19:42;14.07;;;8.82;;
3257;SDS011;1641;51.306;12.384;2022-07-23T06:22:07;11.63;;;7.68;;
3257;SDS011;1641;51.306;12.384;2022-07-23T06:24:32;12.45;;;8.48;;
3257;SDS011;1641;51.306;12.384;2022-07-23T06:26:58;13.57;;;8.20;;
3257;SDS011;1641;51.306;12.384;2022-07-23T06:29:23;10.93;;;7.47;;
3257;SDS011;1641;51.306;12.384;2022-07-23T06:31:48;11.45;;;6.90;;
3257;SDS011;1641;51.306;12.384;2022-07-23T06:34:13;14.40;;;7.28;;
3257;SDS011;1641;51.306;12.384;2022-07-23T06:36:39;9.82;;;7.95;;
3257;SDS011;1641;51.306;12.384;2022-07-23T06:39:04;8.48;;;7.25;;
3257;SDS011;1641;51.306;12.384;2022-07-23T06:41:29;7.72;;;5.82;;
3257;SDS011;1641;51.306;12.384;2022-07-23T06:43:54;14.45;;;5.80;;
3257;SDS011;1641;51.306;12.384;2022-07-23T06:46:20;9.98;;;6.18;;
3257;SDS011;1641;51.306;12.384;2022-07-23T06:48:46;9.98;;;5.70;;
3257;SDS011;1641;51.306;12.384;2022-07-23T06:51:11;8.73;;;5.95;;
3257;SDS011;1641;51.306;12.384;2022-07-23T06:53:36;11.57;;;6.68;;
3257;SDS011;1641;51.306;12.384;2022-07-23T06:56:02;8.35;;;6.22;;
3257;SDS011;1641;51.306;12.384;2022-07-23T06:58:27;9.75;;;7.43;;
3257;SDS011;1641;51.306;12.384;2022-07-23T07:00:52;12.13;;;7.05;;
3257;SDS011;1641;51.306;12.384;2022-07-23T07:03:18;13.60;;;6.45;;
3257;SDS011;1641;51.306;12.384;2022-07-23T07:05:43;12.82;;;7.72;;
3257;SDS011;1641;51.306;12.384;2022-07-23T07:08:08;19.33;;;10.52;;
3257;SDS011;1641;51.306;12.384;2022-07-23T07:10:34;18.30;;;13.38;;
3257;SDS011;1641;51.306;12.384;2022-07-23T07:12:59;11.73;;;6.60;;
3257;SDS011;1641;51.306;12.384;2022-07-23T07:15:24;11.07;;;6.75;;
3257;SDS011;1641;51.306;12.384;2022-07-23T07:17:49;10.10;;;6.75;;
3257;SDS011;1641;51.306;12.384;2022-07-23T07:20:15;10.60;;;6.68;;
3257;SDS011;1641;51.306;12.384;2022-07-23T07:22:40;14.77;;;11.68;;
3257;SDS011;1641;51.306;12.384;2022-07-23T07:25:06;8.43;;;5.65;;
3257;SDS011;1641;51.306;12.384;2022-07-23T07:27:31;7.75;;;6.75;;
3257;SDS011;1641;51.306;12.384;2022-07-23T07:29:57;9.30;;;7.25;;
3257;SDS011;1641;51.306;12.384;2022-07-23T07:32:22;8.85;;;6.95;;
3257;SDS011;1641;51.306;12.384;2022-07-23T07:34:48;14.75;;;9.75;;
3257;SDS011;1641;51.306;12.384;2022-07-23T07:37:13;10.63;;;8.30;;
3257;SDS011;1641;51.306;12.384;2022-07-23T07:39:38;13.43;;;9.27;;
3257;SDS011;1641;51.306;12.384;2022-07-23T07:42:03;10.30;;;8.60;;
3257;SDS011;1641;51.306;12.384;2022-07-23T07:44:29;8.95;;;7.85;;
3257;SDS011;1641;51.306;12.384;2022-07-23T07:46:54;9.73;;;8.10;;
3257;SDS011;1641;51.306;12.384;2022-07-23T07:49:21;13.55;;;9.18;;
3257;SDS011;1641;51.306;12.384;2022-07-23T07:51:47;13.25;;;9.45;;
3257;SDS011;1641;51.306;12.384;2022-07-23T07:54:12;11.50;;;10.05;;
3257;SDS011;1641;51.306;12.384;2022-07-23T07:56:38;12.93;;;9.00;;
3257;SDS011;1641;51.306;12.384;2022-07-23T07:59:03;13.10;;;10.23;;
3257;SDS011;1641;51.306;12.384;2022-07-23T08:01:29;12.38;;;9.85;;
3257;SDS011;1641;51.306;12.384;2022-07-23T08:03:57;13.13;;;9.90;;
3257;SDS011;1641;51.306;12.384;2022-07-23T08:06:22;10.48;;;9.02;;
3257;SDS011;1641;51.306;12.384;2022-07-23T08:08:48;11.52;;;9.57;;
3257;SDS011;1641;51.306;12.384;2022-07-23T08:11:13;12.93;;;9.68;;
3257;SDS011;1641;51.306;12.384;2022-07-23T08:13:38;11.88;;;9.15;;
3257;SDS011;1641;51.306;12.384;2022-07-23T08:16:04;12.80;;;9.45;;
3257;SDS011;1641;51.306;12.384;2022-07-23T08:18:29;10.07;;;8.93;;
3257;SDS011;1641;51.306;12.384;2022-07-23T08:20:55;14.32;;;10.18;;
3257;SDS011;1641;51.306;12.384;2022-07-23T08:23:20;12.07;;;9.82;;
3257;SDS011;1641;51.306;12.384;2022-07-23T08:25:45;13.60;;;10.43;;
3257;SDS011;1641;51.306;12.384;2022-07-23T08:28:12;13.70;;;10.63;;
3257;SDS011;1641;51.306;12.384;2022-07-23T08:30:39;12.75;;;9.65;;
3257;SDS011;1641;51.306;12.384;2022-07-23T08:33:06;17.10;;;11.27;;
3257;SDS011;1641;51.306;12.384;2022-07-23T08:35:40;14.63;;;11.65;;
3257;SDS011;1641;51.306;12.384;2022-07-23T08:38:07;12.30;;;9.82;;
3257;SDS011;1641;51.306;12.384;2022-07-23T08:40:36;11.35;;;9.88;;
3257;SDS011;1641;51.306;12.384;2022-07-23T08:43:06;13.68;;;11.00;;
3257;SDS011;1641;51.306;12.384;2022-07-23T08:45:36;12.52;;;10.85;;
3257;SDS011;1641;51.306;12.384;2022-07-23T08:48:04;11.25;;;9.98;;
3257;SDS011;1641;51.306;12.384;2022-07-23T08:50:32;16.02;;;10.45;;
3257;SDS011;1641;51.306;12.384;2022-07-23T08:52:57;15.07;;;10.10;;
3257;SDS011;1641;51.306;12.384;2022-07-23T08:55:24;15.13;;;11.07;;
3257;SDS011;1641;51.306;12.384;2022-07-23T08:57:52;14.93;;;11.32;;
3257;SDS011;1641;51.306;12.384;2022-07-23T09:00:20;13.10;;;10.95;;
3257;SDS011;1641;51.306;12.384;2022-07-23T09:02:46;14.82;;;12.80;;
3257;SDS011;1641;51.306;12.384;2022-07-23T09:05:12;12.85;;;11.35;;
3257;SDS011;1641;51.306;12.384;2022-07-23T09:15:48;12.60;;;11.23;;
3257;SDS011;1641;51.306;12.384;2022-07-23T09:18:15;14.00;;;11.13;;
3257;SDS011;1641;51.306;12.384;2022-07-23T09:20:41;14.32;;;10.38;;
3257;SDS011;1641;51.306;12.384;2022-07-23T09:23:08;11.27;;;10.15;;
3257;SDS011;1641;51.306;12.384;2022-07-23T09:25:33;13.27;;;10.82;;
3257;SDS011;1641;51.306;12.384;2022-07-23T09:27:59;11.52;;;10.43;;
3257;SDS011;1641;51.306;12.384;2022-07-23T09:30:28;12.80;;;9.70;;
3257;SDS011;1641;51.306;12.384;2022-07-23T09:33:11;11.93;;;10.52;;
3257;SDS011;1641;51.306;12.384;2022-07-23T09:38:14;16.58;;;12.80;;
3257;SDS011;1641;51.306;12.384;2022-07-23T09:40:40;15.50;;;11.68;;
3257;SDS011;1641;51.306;12.384;2022-07-23T09:43:07;14.75;;;10.43;;
3257;SDS011;1641;51.306;12.384;2022-07-23T09:45:32;14.98;;;10.60;;
3257;SDS011;1641;51.306;12.384;2022-07-23T09:48:13;13.43;;;11.07;;
3257;SDS011;1641;51.306;12.384;2022-07-23T09:50:40;15.30;;;12.10;;
3257;SDS011;1641;51.306;12.384;2022-07-23T09:53:07;20.60;;;11.43;;
3257;SDS011;1641;51.306;12.384;2022-07-23T09:55:34;13.48;;;10.77;;
3257;SDS011;1641;51.306;12.384;2022-07-23T09:58:01;12.00;;;9.77;;
3257;SDS011;1641;51.306;12.384;2022-07-23T10:00:28;12.65;;;10.18;;
3257;SDS011;1641;51.306;12.384;2022-07-23T10:02:54;12.65;;;9.82;;
3257;SDS011;1641;51.306;12.384;2022-07-23T10:05:19;15.13;;;9.75;;
3257;SDS011;1641;51.306;12.384;2022-07-23T10:07:46;13.27;;;10.40;;
3257;SDS011;1641;51.306;12.384;2022-07-23T10:10:11;12.13;;;9.57;;
3257;SDS011;1641;51.306;12.384;2022-07-23T10:12:43;11.18;;;9.25;;
3257;SDS011;1641;51.306;12.384;2022-07-23T10:15:27;11.98;;;8.27;;
3257;SDS011;1641;51.306;12.384;2022-07-23T10:17:53;11.55;;;8.88;;
3257;SDS011;1641;51.306;12.384;2022-07-23T10:20:18;9.18;;;7.55;;
3257;SDS011;1641;51.306;12.384;2022-07-23T10:22:48;10.25;;;8.35;;
3257;SDS011;1641;51.306;12.384;2022-07-23T10:25:32;11.50;;;9.63;;
3257;SDS011;1641;51.306;12.384;2022-07-23T10:31:13;11.23;;;9.82;;
3257;SDS011;1641;51.306;12.384;2022-07-23T10:33:45;16.37;;;9.00;;
3257;SDS011;1641;51.306;12.384;2022-07-23T10:36:47;10.00;;;9.00;;
3257;SDS011;1641;51.306;12.384;2022-07-23T10:42:33;13.10;;;9.50;;
3257;SDS011;1641;51.306;12.384;2022-07-23T10:45:02;11.82;;;9.02;;
3257;SDS011;1641;51.306;12.384;2022-07-23T10:47:55;13.43;;;10.00;;
3257;SDS011;1641;51.306;12.384;2022-07-23T10:50:36;12.57;;;10.38;;
3257;SDS011;1641;51.306;12.384;2022-07-23T10:53:14;11.90;;;9.82;;
3257;SDS011;1641;51.306;12.384;2022-07-23T10:55:43;12.80;;;10.67;;
3257;SDS011;1641;51.306;12.384;2022-07-23T10:58:11;13.23;;;10.20;;
3257;SDS011;1641;51.306;12.384;2022-07-23T11:00:41;12.65;;;10.85;;
3257;SDS011;1641;51.306;12.384;2022-07-23T11:05:57;15.95;;;11.57;;
3257;SDS011;1641;51.306;12.384;2022-07-23T11:08:26;12.57;;;11.27;;
3257;SDS011;1641;51.306;12.384;2022-07-23T11:10:55;13.93;;;12.40;;
3257;SDS011;1641;51.306;12.384;2022-07-23T11:13:38;16.30;;;12.35;;
3257;SDS011;1641;51.306;12.384;2022-07-23T11:16:19;18.98;;;15.40;;
3257;SDS011;1641;51.306;12.384;2022-07-23T11:18:52;19.50;;;16.05;;
3257;SDS011;1641;51.306;12.384;2022-07-23T11:32:03;18.77;;;13.90;;
3257;SDS011;1641;51.306;12.384;2022-07-23T11:34:41;18.52;;;12.88;;
3257;SDS011;1641;51.306;12.384;2022-07-23T11:37:08;23.40;;;17.08;;
3257;SDS011;1641;51.306;12.384;2022-07-23T11:39:36;14.93;;;13.38;;
3257;SDS011;1641;51.306;12.384;2022-07-23T11:42:03;14.73;;;13.20;;
3257;SDS011;1641;51.306;12.384;2022-07-23T11:44:33;20.08;;;13.55;;
3257;SDS011;1641;51.306;12.384;2022-07-23T11:47:00;15.07;;;13.55;;
3257;SDS011;1641;51.306;12.384;2022-07-23T11:49:31;16.05;;;13.30;;
3257;SDS011;1641;51.306;12.384;2022-07-23T11:52:10;16.85;;;14.43;;
3257;SDS011;1641;51.306;12.384;2022-07-23T11:54:37;14.43;;;12.10;;
3257;SDS011;1641;51.306;12.384;2022-07-23T11:57:11;15.95;;;11.45;;
3257;SDS011;1641;51.306;12.384;2022-07-23T11:59:37;19.05;;;13.32;;
3257;SDS011;1641;51.306;12.384;2022-07-23T12:02:04;13.30;;;10.63;;
3257;SDS011;1641;51.306;12.384;2022-07-23T12:04:43;16.15;;;11.38;;
3257;SDS011;1641;51.306;12.384;2022-07-23T12:07:26;13.73;;;12.27;;
3257;SDS011;1641;51.306;12.384;2022-07-23T12:10:04;14.85;;;12.05;;
3257;SDS011;1641;51.306;12.384;2022-07-23T12:12:48;16.17;;;12.48;;
3257;SDS011;1641;51.306;12.384;2022-07-23T12:15:19;15.98;;;11.05;;
3257;SDS011;1641;51.306;12.384;2022-07-23T12:17:54;16.70;;;11.73;;
3257;SDS011;1641;51.306;12.384;2022-07-23T12:20:21;14.38;;;11.23;;
3257;SDS011;1641;51.306;12.384;2022-07-23T12:22:52;16.27;;;12.00;;
3257;SDS011;1641;51.306;12.384;2022-07-23T12:25:22;14.98;;;11.13;;
3257;SDS011;1641;51.306;12.384;2022-07-23T12:30:33;20.65;;;11.77;;
3257;SDS011;1641;51.306;12.384;2022-07-23T12:33:05;12.68;;;11.18;;
3257;SDS011;1641;51.306;12.384;2022-07-23T12:35:39;13.52;;;10.50;;
3257;SDS011;1641;51.306;12.384;2022-07-23T12:38:11;17.05;;;11.68;;
3257;SDS011;1641;51.306;12.384;2022-07-23T12:40:47;15.45;;;12.50;;
3257;SDS011;1641;51.306;12.384;2022-07-23T12:43:23;14.20;;;12.80;;
3257;SDS011;1641;51.306;12.384;2022-07-23T12:48:34;19.67;;;15.55;;
3257;SDS011;1641;51.306;12.384;2022-07-23T12:51:05;17.05;;;15.25;;
3257;SDS011;1641;51.306;12.384;2022-07-23T12:53:39;20.55;;;15.68;;
3257;SDS011;1641;51.306;12.384;2022-07-23T12:56:07;17.23;;;14.52;;
3257;SDS011;1641;51.306;12.384;2022-07-23T13:01:26;15.20;;;13.73;;
3257;SDS011;1641;51.306;12.384;2022-07-23T13:06:32;19.67;;;16.05;;
3257;SDS011;1641;51.306;12.384;2022-07-23T13:11:28;14.65;;;13.13;;
3257;SDS011;1641;51.306;12.384;2022-07-23T13:13:56;14.00;;;12.50;;
3257;SDS011;1641;51.306;12.384;2022-07-23T13:16:21;12.98;;;11.70;;
3257;SDS011;1641;51.306;12.384;2022-07-23T13:18:47;14.43;;;11.63;;
3257;SDS011;1641;51.306;12.384;2022-07-23T13:21:18;17.10;;;14.63;;
3257;SDS011;1641;51.306;12.384;2022-07-23T13:26:09;12.47;;;10.43;;
3257;SDS011;1641;51.306;12.384;2022-07-23T13:28:34;11.48;;;10.38;;
3257;SDS011;1641;51.306;12.384;2022-07-23T13:31:00;10.93;;;9.82;;
3257;SDS011;1641;51.306;12.384;2022-07-23T13:33:25;10.15;;;9.00;;
3257;SDS011;1641;51.306;12.384;2022-07-23T13:35:51;9.73;;;8.77;;
3257;SDS011;1641;51.306;12.384;2022-07-23T13:38:18;9.20;;;8.40;;
3257;SDS011;1641;51.306;12.384;2022-07-23T13:40:44;11.48;;;9.70;;
3257;SDS011;1641;51.306;12.384;2022-07-23T13:43:18;11.55;;;8.88;;
3257;SDS011;1641;51.306;12.384;2022-07-23T13:45:48;11.85;;;8.57;;
3257;SDS011;1641;51.306;12.384;2022-07-23T13:48:15;9.30;;;8.38;;
3257;SDS011;1641;51.306;12.384;2022-07-23T13:50:41;10.73;;;7.80;;
3257;SDS011;1641;51.306;12.384;2022-07-23T13:53:08;9.25;;;8.13;;
3257;SDS011;1641;51.306;12.384;2022-07-23T13:55:36;10.60;;;9.20;;
3257;SDS011;1641;51.306;12.384;2022-07-23T13:58:03;11.98;;;9.88;;
3257;SDS011;1641;51.306;12.384;2022-07-23T14:00:29;10.35;;;9.25;;
3257;SDS011;1641;51.306;12.384;2022-07-23T14:02:56;9.55;;;8.32;;
3257;SDS011;1641;51.306;12.384;2022-07-23T14:05:22;12.80;;;8.35;;
3257;SDS011;1641;51.306;12.384;2022-07-23T14:07:47;9.00;;;8.10;;
3257;SDS011;1641;51.306;12.384;2022-07-23T14:10:15;11.45;;;9.65;;
3257;SDS011;1641;51.306;12.384;2022-07-23T14:12:41;9.57;;;8.50;;
3257;SDS011;1641;51.306;12.384;2022-07-23T14:15:06;9.93;;;7.78;;
3257;SDS011;1641;51.306;12.384;2022-07-23T14:17:33;8.68;;;7.78;;
3257;SDS011;1641;51.306;12.384;2022-07-23T14:20:12;10.85;;;8.68;;
3257;SDS011;1641;51.306;12.384;2022-07-23T14:22:38;9.35;;;8.30;;
3257;SDS011;1641;51.306;12.384;2022-07-23T14:25:04;8.82;;;7.93;;
3257;SDS011;1641;51.306;12.384;2022-07-23T14:27:31;10.57;;;8.57;;
3257;SDS011;1641;51.306;12.384;2022-07-23T14:29:56;9.35;;;8.43;;
3257;SDS011;1641;51.306;12.384;2022-07-23T14:32:22;9.35;;;8.55;;
3257;SDS011;1641;51.306;12.384;2022-07-23T14:34:48;11.07;;;10.00;;
3257;SDS011;1641;51.306;12.384;2022-07-23T14:37:13;13.80;;;11.10;;
3257;SDS011;1641;51.306;12.384;2022-07-23T14:39:39;9.95;;;8.30;;
3257;SDS011;1641;51.306;12.384;2022-07-23T14:42:05;11.43;;;10.25;;
3257;SDS011;1641;51.306;12.384;2022-07-23T14:44:31;10.63;;;9.52;;
3257;SDS011;1641;51.306;12.384;2022-07-23T14:46:56;10.57;;;8.85;;
3257;SDS011;1641;51.306;12.384;2022-07-23T14:49:22;10.48;;;9.20;;
3257;SDS011;1641;51.306;12.384;2022-07-23T14:51:47;10.90;;;9.70;;
3257;SDS011;1641;51.306;12.384;2022-07-23T14:54:13;9.75;;;8.82;;
3257;SDS011;1641;51.306;12.384;2022-07-23T14:56:41;11.30;;;10.30;;
3257;SDS011;1641;51.306;12.384;2022-07-23T14:59:07;10.15;;;9.15;;
3257;SDS011;1641;51.306;12.384;2022-07-23T15:01:33;13.60;;;10.52;;
3257;SDS011;1641;51.306;12.384;2022-07-23T15:03:59;10.43;;;9.27;;
3257;SDS011;1641;51.306;12.384;2022-07-23T15:06:27;14.35;;;12.35;;
3257;SDS011;1641;51.306;12.384;2022-07-23T15:08:52;9.18;;;8.35;;
3257;SDS011;1641;51.306;12.384;2022-07-23T15:11:18;9.82;;;8.82;;
3257;SDS011;1641;51.306;12.384;2022-07-23T15:13:43;10.45;;;9.27;;
3257;SDS011;1641;51.306;12.384;2022-07-23T15:16:08;10.10;;;9.10;;
3257;SDS011;1641;51.306;12.384;2022-07-23T15:18:34;10.32;;;9.02;;
3257;SDS011;1641;51.306;12.384;2022-07-23T15:21:03;12.27;;;8.20;;
3257;SDS011;1641;51.306;12.384;2022-07-23T15:23:29;8.77;;;7.97;;
3257;SDS011;1641;51.306;12.384;2022-07-23T15:25:54;10.57;;;9.50;;
3257;SDS011;1641;51.306;12.384;2022-07-23T15:28:21;11.45;;;9.90;;
3257;SDS011;1641;51.306;12.384;2022-07-23T15:30:46;10.52;;;9.52;;
3257;SDS011;1641;51.306;12.384;2022-07-23T15:33:11;10.17;;;8.60;;
3257;SDS011;1641;51.306;12.384;2022-07-23T15:35:37;9.33;;;8.33;;